sensor_id;sensor_type;location;lat;lon;timestamp;temperature;humidity
8711;DHT22;4392;47.400;8.062;2024-01-06T00:01:52;9.40;99.90
8711;DHT22;4392;47.400;8.062;2024-01-06T00:04:18;9.30;99.90
8711;DHT22;4392;47.400;8.062;2024-01-06T00:06:43;9.20;99.90
8711;DHT22;4392;47.400;8.062;2024-01-06T00:09:09;9.20;99.90
8711;DHT22;4392;47.400;8.062;2024-01-06T00:11:35;9.70;99.90
8711;DHT22;4392;47.400;8.062;2024-01-06T00:14:00;10.20;99.90
8711;DHT22;4392;47.400;8.062;2024-01-06T00:16:26;9.80;99.90
8711;DHT22;4392;47.400;8.062;2024-01-06T00:18:51;9.50;99.90
8711;DHT22;4392;47.400;8.062;2024-01-06T00:21:17;9.40;99.90
8711;DHT22;4392;47.400;8.062;2024-01-06T00:23:43;9.70;99.90
8711;DHT22;4392;47.400;8.062;2024-01-06T00:26:09;10.70;99.90
8711;DHT22;4392;47.400;8.062;2024-01-06T00:28:35;10.20;99.90
8711;DHT22;4392;47.400;8.062;2024-01-06T00:31:01;9.90;99.90
8711;DHT22;4392;47.400;8.062;2024-01-06T00:33:26;9.70;99.90
8711;DHT22;4392;47.400;8.062;2024-01-06T00:35:52;9.50;99.90
8711;DHT22;4392;47.400;8.062;2024-01-06T00:38:20;9.50;99.90
8711;DHT22;4392;47.400;8.062;2024-01-06T00:40:48;9.60;99.90
8711;DHT22;4392;47.400;8.062;2024-01-06T00:43:14;10.20;99.90
8711;DHT22;4392;47.400;8.062;2024-01-06T00:45:39;10.40;99.90
8711;DHT22;4392;47.400;8.062;2024-01-06T00:48:05;10.00;99.90
8711;DHT22;4392;47.400;8.062;2024-01-06T00:50:31;9.60;99.90
8711;DHT22;4392;47.400;8.062;2024-01-06T00:52:56;9.50;99.90
8711;DHT22;4392;47.400;8.062;2024-01-06T00:55:24;9.50;99.90
8711;DHT22;4392;47.400;8.062;2024-01-06T00:57:50;9.40;99.90
8711;DHT22;4392;47.400;8.062;2024-01-06T01:00:16;10.50;99.90
8711;DHT22;4392;47.400;8.062;2024-01-06T01:02:42;10.10;99.90
8711;DHT22;4392;47.400;8.062;2024-01-06T01:05:07;9.70;99.90
8711;DHT22;4392;47.400;8.062;2024-01-06T01:07:33;9.50;99.90
8711;DHT22;4392;47.400;8.062;2024-01-06T01:09:59;9.30;99.90
8711;DHT22;4392;47.400;8.062;2024-01-06T01:12:25;9.10;99.90
8711;DHT22;4392;47.400;8.062;2024-01-06T01:14:52;9.00;99.90
8711;DHT22;4392;47.400;8.062;2024-01-06T01:17:18;9.10;99.90
8711;DHT22;4392;47.400;8.062;2024-01-06T01:19:44;9.10;99.90
8711;DHT22;4392;47.400;8.062;2024-01-06T01:22:10;10.40;99.90
8711;DHT22;4392;47.400;8.062;2024-01-06T01:24:36;10.00;99.90
8711;DHT22;4392;47.400;8.062;2024-01-06T01:27:01;9.70;99.90
8711;DHT22;4392;47.400;8.062;2024-01-06T01:29:27;9.50;99.90
8711;DHT22;4392;47.400;8.062;2024-01-06T01:31:53;10.60;99.90
8711;DHT22;4392;47.400;8.062;2024-01-06T01:34:18;10.20;99.90
8711;DHT22;4392;47.400;8.062;2024-01-06T01:36:45;9.70;99.90
8711;DHT22;4392;47.400;8.062;2024-01-06T01:39:10;9.50;99.90
8711;DHT22;4392;47.400;8.062;2024-01-06T01:41:36;9.40;99.90
8711;DHT22;4392;47.400;8.062;2024-01-06T01:44:02;9.30;99.90
8711;DHT22;4392;47.400;8.062;2024-01-06T01:46:28;9.30;99.90
8711;DHT22;4392;47.400;8.062;2024-01-06T01:48:59;9.20;99.90
8711;DHT22;4392;47.400;8.062;2024-01-06T01:51:28;9.20;99.90
8711;DHT22;4392;47.400;8.062;2024-01-06T01:53:57;9.10;99.90
8711;DHT22;4392;47.400;8.062;2024-01-06T01:56:24;9.20;99.90
8711;DHT22;4392;47.400;8.062;2024-01-06T01:58:50;9.10;99.90
8711;DHT22;4392;47.400;8.062;2024-01-06T02:01:16;9.20;99.90
8711;DHT22;4392;47.400;8.062;2024-01-06T02:03:42;9.70;99.90
8711;DHT22;4392;47.400;8.062;2024-01-06T02:06:11;10.40;99.90
8711;DHT22;4392;47.400;8.062;2024-01-06T02:08:37;10.00;99.90
8711;DHT22;4392;47.400;8.062;2024-01-06T02:11:04;9.70;99.90
8711;DHT22;4392;47.400;8.062;2024-01-06T02:13:37;9.60;99.90
8711;DHT22;4392;47.400;8.062;2024-01-06T02:16:04;10.20;99.90
8711;DHT22;4392;47.400;8.062;2024-01-06T02:18:31;10.80;99.90
8711;DHT22;4392;47.400;8.062;2024-01-06T02:21:03;10.20;99.90
8711;DHT22;4392;47.400;8.062;2024-01-06T02:23:31;9.90;99.90
8711;DHT22;4392;47.400;8.062;2024-01-06T02:25:59;9.80;99.90
8711;DHT22;4392;47.400;8.062;2024-01-06T02:28:25;9.70;99.90
8711;DHT22;4392;47.400;8.062;2024-01-06T02:30:50;9.60;99.90
8711;DHT22;4392;47.400;8.062;2024-01-06T02:33:16;9.60;99.90
8711;DHT22;4392;47.400;8.062;2024-01-06T02:35:42;9.50;99.90
8711;DHT22;4392;47.400;8.062;2024-01-06T02:38:08;9.50;99.90
8711;DHT22;4392;47.400;8.062;2024-01-06T02:40:34;9.40;99.90
8711;DHT22;4392;47.400;8.062;2024-01-06T02:43:00;9.30;99.90
8711;DHT22;4392;47.400;8.062;2024-01-06T02:45:25;9.40;99.90
8711;DHT22;4392;47.400;8.062;2024-01-06T02:47:51;9.30;99.90
8711;DHT22;4392;47.400;8.062;2024-01-06T02:50:17;9.30;99.90
8711;DHT22;4392;47.400;8.062;2024-01-06T02:52:44;9.40;99.90
8711;DHT22;4392;47.400;8.062;2024-01-06T02:55:10;9.40;99.90
8711;DHT22;4392;47.400;8.062;2024-01-06T02:57:36;9.40;99.90
8711;DHT22;4392;47.400;8.062;2024-01-06T03:00:02;9.40;99.90
8711;DHT22;4392;47.400;8.062;2024-01-06T03:02:29;10.40;99.90
8711;DHT22;4392;47.400;8.062;2024-01-06T03:04:54;11.70;99.90
8711;DHT22;4392;47.400;8.062;2024-01-06T03:07:20;12.30;99.90
8711;DHT22;4392;47.400;8.062;2024-01-06T03:09:46;12.60;99.90
8711;DHT22;4392;47.400;8.062;2024-01-06T03:12:12;12.80;99.90
8711;DHT22;4392;47.400;8.062;2024-01-06T03:14:37;12.90;99.90
8711;DHT22;4392;47.400;8.062;2024-01-06T03:17:03;12.90;99.90
8711;DHT22;4392;47.400;8.062;2024-01-06T03:19:30;12.60;99.90
8711;DHT22;4392;47.400;8.062;2024-01-06T03:21:56;11.70;99.90
8711;DHT22;4392;47.400;8.062;2024-01-06T03:24:23;11.10;99.90
8711;DHT22;4392;47.400;8.062;2024-01-06T03:26:49;10.80;99.90
8711;DHT22;4392;47.400;8.062;2024-01-06T03:29:14;10.60;99.90
8711;DHT22;4392;47.400;8.062;2024-01-06T03:31:43;10.50;99.90
8711;DHT22;4392;47.400;8.062;2024-01-06T03:34:09;11.80;99.90
8711;DHT22;4392;47.400;8.062;2024-01-06T03:36:37;11.10;99.90
8711;DHT22;4392;47.400;8.062;2024-01-06T03:39:03;10.60;99.90
8711;DHT22;4392;47.400;8.062;2024-01-06T03:41:28;10.30;99.90
8711;DHT22;4392;47.400;8.062;2024-01-06T03:43:54;10.10;99.90
8711;DHT22;4392;47.400;8.062;2024-01-06T03:46:19;10.00;99.90
8711;DHT22;4392;47.400;8.062;2024-01-06T03:48:45;9.90;99.90
8711;DHT22;4392;47.400;8.062;2024-01-06T03:51:13;9.70;99.90
8711;DHT22;4392;47.400;8.062;2024-01-06T03:53:39;9.80;99.90
8711;DHT22;4392;47.400;8.062;2024-01-06T03:56:06;9.70;99.90
8711;DHT22;4392;47.400;8.062;2024-01-06T03:58:32;9.70;99.90
8711;DHT22;4392;47.400;8.062;2024-01-06T04:00:58;9.60;99.90
8711;DHT22;4392;47.400;8.062;2024-01-06T04:03:26;9.60;99.90
8711;DHT22;4392;47.400;8.062;2024-01-06T04:05:51;9.60;99.90
8711;DHT22;4392;47.400;8.062;2024-01-06T04:08:18;9.60;99.90
8711;DHT22;4392;47.400;8.062;2024-01-06T04:10:46;9.60;99.90
8711;DHT22;4392;47.400;8.062;2024-01-06T04:13:12;9.60;99.90
8711;DHT22;4392;47.400;8.062;2024-01-06T04:15:39;9.50;99.90
8711;DHT22;4392;47.400;8.062;2024-01-06T04:18:05;9.50;99.90
8711;DHT22;4392;47.400;8.062;2024-01-06T04:20:32;9.50;99.90
8711;DHT22;4392;47.400;8.062;2024-01-06T04:22:58;9.40;99.90
8711;DHT22;4392;47.400;8.062;2024-01-06T04:25:24;9.10;99.90
8711;DHT22;4392;47.400;8.062;2024-01-06T04:27:50;9.20;99.90
8711;DHT22;4392;47.400;8.062;2024-01-06T04:30:17;9.30;99.90
8711;DHT22;4392;47.400;8.062;2024-01-06T04:32:43;9.30;99.90
8711;DHT22;4392;47.400;8.062;2024-01-06T04:35:10;9.30;99.90
8711;DHT22;4392;47.400;8.062;2024-01-06T04:37:35;9.30;99.90
8711;DHT22;4392;47.400;8.062;2024-01-06T04:40:01;9.30;99.90
8711;DHT22;4392;47.400;8.062;2024-01-06T04:42:27;9.30;99.90
8711;DHT22;4392;47.400;8.062;2024-01-06T04:44:52;11.00;99.90
8711;DHT22;4392;47.400;8.062;2024-01-06T04:47:18;11.60;99.90
8711;DHT22;4392;47.400;8.062;2024-01-06T04:49:44;11.80;99.90
8711;DHT22;4392;47.400;8.062;2024-01-06T04:52:10;11.90;99.90
8711;DHT22;4392;47.400;8.062;2024-01-06T04:54:36;12.10;99.90
8711;DHT22;4392;47.400;8.062;2024-01-06T04:57:01;12.10;99.90
8711;DHT22;4392;47.400;8.062;2024-01-06T04:59:30;12.30;99.90
8711;DHT22;4392;47.400;8.062;2024-01-06T05:01:57;12.30;99.90
8711;DHT22;4392;47.400;8.062;2024-01-06T05:04:23;12.30;99.90
8711;DHT22;4392;47.400;8.062;2024-01-06T05:06:49;12.30;99.90
8711;DHT22;4392;47.400;8.062;2024-01-06T05:09:15;12.40;99.90
8711;DHT22;4392;47.400;8.062;2024-01-06T05:11:46;12.40;99.90
8711;DHT22;4392;47.400;8.062;2024-01-06T05:14:12;12.40;99.90
8711;DHT22;4392;47.400;8.062;2024-01-06T05:16:39;12.40;99.90
8711;DHT22;4392;47.400;8.062;2024-01-06T05:19:04;12.50;99.90
8711;DHT22;4392;47.400;8.062;2024-01-06T05:21:30;12.50;99.90
8711;DHT22;4392;47.400;8.062;2024-01-06T05:23:56;11.60;99.90
8711;DHT22;4392;47.400;8.062;2024-01-06T05:26:21;11.00;99.90
8711;DHT22;4392;47.400;8.062;2024-01-06T05:28:47;10.60;99.90
8711;DHT22;4392;47.400;8.062;2024-01-06T05:31:16;11.70;99.90
8711;DHT22;4392;47.400;8.062;2024-01-06T05:33:41;11.10;99.90
8711;DHT22;4392;47.400;8.062;2024-01-06T05:36:08;10.60;99.90
8711;DHT22;4392;47.400;8.062;2024-01-06T05:38:33;10.30;99.90
8711;DHT22;4392;47.400;8.062;2024-01-06T05:40:59;10.10;99.90
8711;DHT22;4392;47.400;8.062;2024-01-06T05:43:24;9.90;99.90
8711;DHT22;4392;47.400;8.062;2024-01-06T05:45:50;9.80;99.90
8711;DHT22;4392;47.400;8.062;2024-01-06T05:48:16;9.80;99.90
8711;DHT22;4392;47.400;8.062;2024-01-06T05:50:42;9.70;99.90
8711;DHT22;4392;47.400;8.062;2024-01-06T05:53:08;10.90;99.90
8711;DHT22;4392;47.400;8.062;2024-01-06T05:55:34;10.80;99.90
8711;DHT22;4392;47.400;8.062;2024-01-06T05:57:59;10.40;99.90
8711;DHT22;4392;47.400;8.062;2024-01-06T06:00:26;10.00;99.90
8711;DHT22;4392;47.400;8.062;2024-01-06T06:02:52;9.80;99.90
8711;DHT22;4392;47.400;8.062;2024-01-06T06:05:20;9.70;99.90
8711;DHT22;4392;47.400;8.062;2024-01-06T06:07:45;9.60;99.90
8711;DHT22;4392;47.400;8.062;2024-01-06T06:10:11;9.50;99.90
8711;DHT22;4392;47.400;8.062;2024-01-06T06:12:37;9.40;99.90
8711;DHT22;4392;47.400;8.062;2024-01-06T06:15:04;9.50;99.90
8711;DHT22;4392;47.400;8.062;2024-01-06T06:17:30;9.40;99.90
8711;DHT22;4392;47.400;8.062;2024-01-06T06:19:57;9.30;99.90
8711;DHT22;4392;47.400;8.062;2024-01-06T06:22:23;9.30;99.90
8711;DHT22;4392;47.400;8.062;2024-01-06T06:24:51;9.30;99.90
8711;DHT22;4392;47.400;8.062;2024-01-06T06:27:17;9.20;99.90
8711;DHT22;4392;47.400;8.062;2024-01-06T06:29:42;9.20;99.90
8711;DHT22;4392;47.400;8.062;2024-01-06T06:32:08;9.10;99.90
8711;DHT22;4392;47.400;8.062;2024-01-06T06:34:33;9.20;99.90
8711;DHT22;4392;47.400;8.062;2024-01-06T06:36:59;9.30;99.90
8711;DHT22;4392;47.400;8.062;2024-01-06T06:39:25;9.30;99.90
8711;DHT22;4392;47.400;8.062;2024-01-06T06:41:52;9.20;99.90
8711;DHT22;4392;47.400;8.062;2024-01-06T06:44:18;9.20;99.90
8711;DHT22;4392;47.400;8.062;2024-01-06T06:46:45;9.20;99.90
8711;DHT22;4392;47.400;8.062;2024-01-06T06:49:11;9.10;99.90
8711;DHT22;4392;47.400;8.062;2024-01-06T06:51:37;9.00;99.90
8711;DHT22;4392;47.400;8.062;2024-01-06T06:54:09;9.20;99.90
8711;DHT22;4392;47.400;8.062;2024-01-06T06:56:35;10.30;99.90
8711;DHT22;4392;47.400;8.062;2024-01-06T06:59:01;11.70;99.90
8711;DHT22;4392;47.400;8.062;2024-01-06T07:01:27;11.00;99.90
8711;DHT22;4392;47.400;8.062;2024-01-06T07:03:56;10.30;99.90
8711;DHT22;4392;47.400;8.062;2024-01-06T07:06:21;10.00;99.90
8711;DHT22;4392;47.400;8.062;2024-01-06T07:08:47;11.10;99.90
8711;DHT22;4392;47.400;8.062;2024-01-06T07:11:13;12.10;99.90
8711;DHT22;4392;47.400;8.062;2024-01-06T07:13:42;12.50;99.90
8711;DHT22;4392;47.400;8.062;2024-01-06T07:16:08;12.70;99.90
8711;DHT22;4392;47.400;8.062;2024-01-06T07:18:34;12.80;99.90
8711;DHT22;4392;47.400;8.062;2024-01-06T07:21:00;12.90;99.90
8711;DHT22;4392;47.400;8.062;2024-01-06T07:23:28;11.90;99.90
8711;DHT22;4392;47.400;8.062;2024-01-06T07:25:55;11.10;99.90
8711;DHT22;4392;47.400;8.062;2024-01-06T07:28:21;10.60;99.90
8711;DHT22;4392;47.400;8.062;2024-01-06T07:30:46;10.30;99.90
8711;DHT22;4392;47.400;8.062;2024-01-06T07:33:12;10.20;99.90
8711;DHT22;4392;47.400;8.062;2024-01-06T07:35:38;10.20;99.90
8711;DHT22;4392;47.400;8.062;2024-01-06T07:38:09;10.00;99.90
8711;DHT22;4392;47.400;8.062;2024-01-06T07:40:36;9.90;99.90
8711;DHT22;4392;47.400;8.062;2024-01-06T07:43:01;9.60;99.90
8711;DHT22;4392;47.400;8.062;2024-01-06T07:45:27;9.50;99.90
8711;DHT22;4392;47.400;8.062;2024-01-06T07:47:53;9.50;99.90
8711;DHT22;4392;47.400;8.062;2024-01-06T07:50:18;9.40;99.90
8711;DHT22;4392;47.400;8.062;2024-01-06T07:52:44;9.30;99.90
8711;DHT22;4392;47.400;8.062;2024-01-06T07:55:10;9.20;99.90
8711;DHT22;4392;47.400;8.062;2024-01-06T07:57:35;9.20;99.90
8711;DHT22;4392;47.400;8.062;2024-01-06T08:00:01;9.10;99.90
8711;DHT22;4392;47.400;8.062;2024-01-06T08:02:27;9.10;99.90
8711;DHT22;4392;47.400;8.062;2024-01-06T08:04:52;9.00;99.90
8711;DHT22;4392;47.400;8.062;2024-01-06T08:07:21;9.10;99.90
8711;DHT22;4392;47.400;8.062;2024-01-06T08:09:46;9.10;99.90
8711;DHT22;4392;47.400;8.062;2024-01-06T08:12:12;9.10;99.90
8711;DHT22;4392;47.400;8.062;2024-01-06T08:14:38;9.10;99.90
8711;DHT22;4392;47.400;8.062;2024-01-06T08:17:03;9.00;99.90
8711;DHT22;4392;47.400;8.062;2024-01-06T08:19:29;9.00;99.90
8711;DHT22;4392;47.400;8.062;2024-01-06T08:21:57;9.00;99.90
8711;DHT22;4392;47.400;8.062;2024-01-06T08:24:22;9.00;99.90
8711;DHT22;4392;47.400;8.062;2024-01-06T08:26:48;9.00;99.90
8711;DHT22;4392;47.400;8.062;2024-01-06T08:29:13;9.00;99.90
8711;DHT22;4392;47.400;8.062;2024-01-06T08:31:41;9.00;99.90
8711;DHT22;4392;47.400;8.062;2024-01-06T08:34:07;8.90;99.90
8711;DHT22;4392;47.400;8.062;2024-01-06T08:36:34;8.90;99.90
8711;DHT22;4392;47.400;8.062;2024-01-06T08:38:59;8.90;99.90
8711;DHT22;4392;47.400;8.062;2024-01-06T08:41:25;8.80;99.90
8711;DHT22;4392;47.400;8.062;2024-01-06T08:43:53;8.80;99.90
8711;DHT22;4392;47.400;8.062;2024-01-06T08:46:19;8.80;99.90
8711;DHT22;4392;47.400;8.062;2024-01-06T08:48:45;8.80;99.90
8711;DHT22;4392;47.400;8.062;2024-01-06T08:51:10;8.90;99.90
8711;DHT22;4392;47.400;8.062;2024-01-06T08:53:36;8.80;99.90
8711;DHT22;4392;47.400;8.062;2024-01-06T08:56:02;8.80;99.90
8711;DHT22;4392;47.400;8.062;2024-01-06T08:58:28;8.80;99.90
8711;DHT22;4392;47.400;8.062;2024-01-06T09:00:53;8.80;99.90
8711;DHT22;4392;47.400;8.062;2024-01-06T09:03:22;8.80;99.90
8711;DHT22;4392;47.400;8.062;2024-01-06T09:05:55;8.90;99.90
8711;DHT22;4392;47.400;8.062;2024-01-06T09:08:21;8.90;99.90
8711;DHT22;4392;47.400;8.062;2024-01-06T09:10:47;8.80;99.90
8711;DHT22;4392;47.400;8.062;2024-01-06T09:13:13;8.90;99.90
8711;DHT22;4392;47.400;8.062;2024-01-06T09:15:39;8.90;99.90
8711;DHT22;4392;47.400;8.062;2024-01-06T09:18:04;9.00;99.90
8711;DHT22;4392;47.400;8.062;2024-01-06T09:20:30;9.00;99.90
8711;DHT22;4392;47.400;8.062;2024-01-06T09:22:55;8.90;99.90
8711;DHT22;4392;47.400;8.062;2024-01-06T09:25:21;10.50;99.90
8711;DHT22;4392;47.400;8.062;2024-01-06T09:27:50;10.70;99.90
8711;DHT22;4392;47.400;8.062;2024-01-06T09:30:16;10.30;99.90
8711;DHT22;4392;47.400;8.062;2024-01-06T09:32:42;9.90;99.90
8711;DHT22;4392;47.400;8.062;2024-01-06T09:35:08;9.70;99.90
8711;DHT22;4392;47.400;8.062;2024-01-06T09:37:33;9.70;99.90
8711;DHT22;4392;47.400;8.062;2024-01-06T09:39:59;9.60;99.90
8711;DHT22;4392;47.400;8.062;2024-01-06T09:42:25;9.50;99.90
8711;DHT22;4392;47.400;8.062;2024-01-06T09:44:51;9.50;99.90
8711;DHT22;4392;47.400;8.062;2024-01-06T09:47:18;9.50;99.90
8711;DHT22;4392;47.400;8.062;2024-01-06T09:49:48;9.30;99.90
8711;DHT22;4392;47.400;8.062;2024-01-06T09:52:15;9.00;99.90
8711;DHT22;4392;47.400;8.062;2024-01-06T09:54:52;8.90;99.90
8711;DHT22;4392;47.400;8.062;2024-01-06T09:57:20;9.00;99.90
8711;DHT22;4392;47.400;8.062;2024-01-06T09:59:45;9.00;99.90
8711;DHT22;4392;47.400;8.062;2024-01-06T10:02:16;8.80;99.90
8711;DHT22;4392;47.400;8.062;2024-01-06T10:04:43;9.00;99.90
8711;DHT22;4392;47.400;8.062;2024-01-06T10:07:10;9.20;99.90
8711;DHT22;4392;47.400;8.062;2024-01-06T10:09:40;9.30;99.90
8711;DHT22;4392;47.400;8.062;2024-01-06T10:12:07;9.70;99.90
8711;DHT22;4392;47.400;8.062;2024-01-06T10:14:32;11.00;99.90
8711;DHT22;4392;47.400;8.062;2024-01-06T10:16:58;10.40;99.90
8711;DHT22;4392;47.400;8.062;2024-01-06T10:19:24;9.30;99.90
8711;DHT22;4392;47.400;8.062;2024-01-06T10:21:50;8.60;99.90
8711;DHT22;4392;47.400;8.062;2024-01-06T10:24:18;8.20;99.90
8711;DHT22;4392;47.400;8.062;2024-01-06T10:26:45;8.40;99.90
8711;DHT22;4392;47.400;8.062;2024-01-06T10:29:12;8.60;99.90
8711;DHT22;4392;47.400;8.062;2024-01-06T10:31:41;10.50;99.90
8711;DHT22;4392;47.400;8.062;2024-01-06T10:34:09;11.70;99.90
8711;DHT22;4392;47.400;8.062;2024-01-06T10:36:35;11.00;99.90
8711;DHT22;4392;47.400;8.062;2024-01-06T10:39:03;10.30;99.90
8711;DHT22;4392;47.400;8.062;2024-01-06T10:41:29;9.80;99.90
8711;DHT22;4392;47.400;8.062;2024-01-06T10:43:58;9.70;99.90
8711;DHT22;4392;47.400;8.062;2024-01-06T10:46:30;9.60;99.90
8711;DHT22;4392;47.400;8.062;2024-01-06T10:48:57;9.40;99.90
8711;DHT22;4392;47.400;8.062;2024-01-06T10:51:25;9.00;99.90
8711;DHT22;4392;47.400;8.062;2024-01-06T10:54:00;9.00;99.90
8711;DHT22;4392;47.400;8.062;2024-01-06T10:56:26;9.20;99.90
8711;DHT22;4392;47.400;8.062;2024-01-06T10:58:53;9.30;99.90
8711;DHT22;4392;47.400;8.062;2024-01-06T11:01:22;9.30;99.90
8711;DHT22;4392;47.400;8.062;2024-01-06T11:03:50;10.40;99.90
8711;DHT22;4392;47.400;8.062;2024-01-06T11:06:20;11.30;99.90
8711;DHT22;4392;47.400;8.062;2024-01-06T11:11:36;9.80;99.90
8711;DHT22;4392;47.400;8.062;2024-01-06T11:14:22;9.40;99.90
8711;DHT22;4392;47.400;8.062;2024-01-06T11:16:48;9.30;99.90
8711;DHT22;4392;47.400;8.062;2024-01-06T11:19:44;9.30;99.90
8711;DHT22;4392;47.400;8.062;2024-01-06T11:22:33;9.20;99.90
8711;DHT22;4392;47.400;8.062;2024-01-06T11:25:11;8.90;99.90
8711;DHT22;4392;47.400;8.062;2024-01-06T11:27:39;9.00;99.90
8711;DHT22;4392;47.400;8.062;2024-01-06T11:30:05;9.40;99.90
8711;DHT22;4392;47.400;8.062;2024-01-06T11:35:11;11.70;99.90
8711;DHT22;4392;47.400;8.062;2024-01-06T11:45:29;11.80;99.90
8711;DHT22;4392;47.400;8.062;2024-01-06T11:47:59;12.50;99.90
8711;DHT22;4392;47.400;8.062;2024-01-06T11:50:27;12.70;99.90
8711;DHT22;4392;47.400;8.062;2024-01-06T11:52:54;13.00;99.90
8711;DHT22;4392;47.400;8.062;2024-01-06T11:55:20;12.40;99.90
8711;DHT22;4392;47.400;8.062;2024-01-06T11:57:46;12.60;99.90
8711;DHT22;4392;47.400;8.062;2024-01-06T12:00:13;13.10;98.90
8711;DHT22;4392;47.400;8.062;2024-01-06T12:02:41;13.40;97.40
8711;DHT22;4392;47.400;8.062;2024-01-06T12:05:13;13.40;96.40
8711;DHT22;4392;47.400;8.062;2024-01-06T12:07:41;13.20;90.50
8711;DHT22;4392;47.400;8.062;2024-01-06T12:10:08;12.20;88.00
8711;DHT22;4392;47.400;8.062;2024-01-06T12:12:34;11.50;90.10
8711;DHT22;4392;47.400;8.062;2024-01-06T12:14:59;11.70;97.90
8711;DHT22;4392;47.400;8.062;2024-01-06T12:17:31;11.60;97.20
8711;DHT22;4392;47.400;8.062;2024-01-06T12:19:57;12.60;99.00
8711;DHT22;4392;47.400;8.062;2024-01-06T12:22:22;12.50;91.70
8711;DHT22;4392;47.400;8.062;2024-01-06T12:24:51;12.50;97.90
8711;DHT22;4392;47.400;8.062;2024-01-06T12:27:17;12.10;89.40
8711;DHT22;4392;47.400;8.062;2024-01-06T12:29:44;11.60;90.30
8711;DHT22;4392;47.400;8.062;2024-01-06T12:32:12;12.10;98.40
8711;DHT22;4392;47.400;8.062;2024-01-06T12:34:38;12.70;92.30
8711;DHT22;4392;47.400;8.062;2024-01-06T12:37:06;11.90;90.20
8711;DHT22;4392;47.400;8.062;2024-01-06T12:39:33;11.50;89.50
8711;DHT22;4392;47.400;8.062;2024-01-06T12:42:00;11.10;90.40
8711;DHT22;4392;47.400;8.062;2024-01-06T12:44:26;11.10;96.60
8711;DHT22;4392;47.400;8.062;2024-01-06T12:46:54;11.20;90.30
8711;DHT22;4392;47.400;8.062;2024-01-06T12:49:20;10.60;90.10
8711;DHT22;4392;47.400;8.062;2024-01-06T12:51:46;10.20;90.70
8711;DHT22;4392;47.400;8.062;2024-01-06T12:54:11;10.20;92.00
8711;DHT22;4392;47.400;8.062;2024-01-06T12:56:37;10.40;92.90
8711;DHT22;4392;47.400;8.062;2024-01-06T12:59:03;10.50;92.30
8711;DHT22;4392;47.400;8.062;2024-01-06T13:01:29;10.20;91.00
8711;DHT22;4392;47.400;8.062;2024-01-06T13:03:55;9.90;92.90
8711;DHT22;4392;47.400;8.062;2024-01-06T13:06:24;9.60;92.30
8711;DHT22;4392;47.400;8.062;2024-01-06T13:08:53;10.80;94.00
8711;DHT22;4392;47.400;8.062;2024-01-06T13:11:19;11.30;99.90
8711;DHT22;4392;47.400;8.062;2024-01-06T13:13:45;11.80;94.40
8711;DHT22;4392;47.400;8.062;2024-01-06T13:16:11;10.90;91.60
8711;DHT22;4392;47.400;8.062;2024-01-06T13:18:36;10.40;91.40
8711;DHT22;4392;47.400;8.062;2024-01-06T13:21:02;10.20;91.90
8711;DHT22;4392;47.400;8.062;2024-01-06T13:23:28;10.20;92.40
8711;DHT22;4392;47.400;8.062;2024-01-06T13:25:54;11.00;99.90
8711;DHT22;4392;47.400;8.062;2024-01-06T13:28:19;11.60;95.40
8711;DHT22;4392;47.400;8.062;2024-01-06T13:30:45;11.70;95.40
8711;DHT22;4392;47.400;8.062;2024-01-06T13:33:12;11.10;91.80
8711;DHT22;4392;47.400;8.062;2024-01-06T13:35:37;10.50;91.00
8711;DHT22;4392;47.400;8.062;2024-01-06T13:38:03;10.30;91.90
8711;DHT22;4392;47.400;8.062;2024-01-06T13:40:32;9.90;92.30
8711;DHT22;4392;47.400;8.062;2024-01-06T13:42:58;9.80;93.30
8711;DHT22;4392;47.400;8.062;2024-01-06T13:45:24;9.90;94.00
8711;DHT22;4392;47.400;8.062;2024-01-06T13:47:49;9.80;93.10
8711;DHT22;4392;47.400;8.062;2024-01-06T13:50:18;10.00;93.50
8711;DHT22;4392;47.400;8.062;2024-01-06T13:52:44;10.00;93.60
8711;DHT22;4392;47.400;8.062;2024-01-06T13:55:11;9.90;95.90
8711;DHT22;4392;47.400;8.062;2024-01-06T13:57:37;9.90;93.50
8711;DHT22;4392;47.400;8.062;2024-01-06T14:00:08;9.90;92.70
8711;DHT22;4392;47.400;8.062;2024-01-06T14:02:34;9.90;93.00
8711;DHT22;4392;47.400;8.062;2024-01-06T14:05:00;10.10;93.40
8711;DHT22;4392;47.400;8.062;2024-01-06T14:07:25;10.00;93.50
8711;DHT22;4392;47.400;8.062;2024-01-06T14:09:51;9.80;92.60
8711;DHT22;4392;47.400;8.062;2024-01-06T14:12:18;9.50;92.60
8711;DHT22;4392;47.400;8.062;2024-01-06T14:14:44;9.50;92.90
8711;DHT22;4392;47.400;8.062;2024-01-06T14:17:10;9.70;93.40
8711;DHT22;4392;47.400;8.062;2024-01-06T14:19:36;11.30;99.90
8711;DHT22;4392;47.400;8.062;2024-01-06T14:22:02;12.20;99.90
8711;DHT22;4392;47.400;8.062;2024-01-06T14:24:30;12.70;98.70
8711;DHT22;4392;47.400;8.062;2024-01-06T14:26:56;13.00;95.90
8711;DHT22;4392;47.400;8.062;2024-01-06T14:29:25;13.00;94.00
8711;DHT22;4392;47.400;8.062;2024-01-06T14:31:50;13.10;92.60
8711;DHT22;4392;47.400;8.062;2024-01-06T14:34:17;12.90;85.20
8711;DHT22;4392;47.400;8.062;2024-01-06T14:36:43;11.60;86.40
8711;DHT22;4392;47.400;8.062;2024-01-06T14:39:14;11.10;89.30
8711;DHT22;4392;47.400;8.062;2024-01-06T14:41:40;10.80;90.00
8711;DHT22;4392;47.400;8.062;2024-01-06T14:44:06;10.60;90.60
8711;DHT22;4392;47.400;8.062;2024-01-06T14:46:32;10.40;90.40
8711;DHT22;4392;47.400;8.062;2024-01-06T14:48:59;10.30;90.70
8711;DHT22;4392;47.400;8.062;2024-01-06T14:51:25;10.20;91.10
8711;DHT22;4392;47.400;8.062;2024-01-06T14:53:50;10.70;96.10
8711;DHT22;4392;47.400;8.062;2024-01-06T14:56:16;11.30;91.10
8711;DHT22;4392;47.400;8.062;2024-01-06T14:58:41;10.80;90.50
8711;DHT22;4392;47.400;8.062;2024-01-06T15:01:07;10.40;91.40
8711;DHT22;4392;47.400;8.062;2024-01-06T15:03:32;10.20;91.30
8711;DHT22;4392;47.400;8.062;2024-01-06T15:05:58;9.90;91.90
8711;DHT22;4392;47.400;8.062;2024-01-06T15:08:24;9.80;93.20
8711;DHT22;4392;47.400;8.062;2024-01-06T15:10:50;9.80;93.10
8711;DHT22;4392;47.400;8.062;2024-01-06T15:13:18;9.70;92.00
8711;DHT22;4392;47.400;8.062;2024-01-06T15:15:44;9.50;92.40
8711;DHT22;4392;47.400;8.062;2024-01-06T15:18:10;9.50;93.00
8711;DHT22;4392;47.400;8.062;2024-01-06T15:20:36;9.50;92.40
8711;DHT22;4392;47.400;8.062;2024-01-06T15:23:01;9.00;93.10
8711;DHT22;4392;47.400;8.062;2024-01-06T15:25:27;9.00;93.60
8711;DHT22;4392;47.400;8.062;2024-01-06T15:27:53;9.10;93.60
8711;DHT22;4392;47.400;8.062;2024-01-06T15:30:18;9.20;93.70
8711;DHT22;4392;47.400;8.062;2024-01-06T15:32:44;9.20;93.10
8711;DHT22;4392;47.400;8.062;2024-01-06T15:35:10;8.80;94.30
8711;DHT22;4392;47.400;8.062;2024-01-06T15:37:36;8.60;94.20
8711;DHT22;4392;47.400;8.062;2024-01-06T15:40:02;8.40;94.60
8711;DHT22;4392;47.400;8.062;2024-01-06T15:42:28;8.40;95.20
8711;DHT22;4392;47.400;8.062;2024-01-06T15:44:55;8.70;94.80
8711;DHT22;4392;47.400;8.062;2024-01-06T15:47:20;8.90;94.50
8711;DHT22;4392;47.400;8.062;2024-01-06T15:49:46;8.90;94.30
8711;DHT22;4392;47.400;8.062;2024-01-06T15:52:12;8.90;93.90
8711;DHT22;4392;47.400;8.062;2024-01-06T15:54:37;8.70;94.30
8711;DHT22;4392;47.400;8.062;2024-01-06T15:57:03;8.60;94.30
8711;DHT22;4392;47.400;8.062;2024-01-06T15:59:31;10.20;99.90
8711;DHT22;4392;47.400;8.062;2024-01-06T16:01:57;11.70;99.90
8711;DHT22;4392;47.400;8.062;2024-01-06T16:04:23;11.10;92.60
8711;DHT22;4392;47.400;8.062;2024-01-06T16:06:48;10.40;92.10
8711;DHT22;4392;47.400;8.062;2024-01-06T16:09:17;10.00;93.20
8711;DHT22;4392;47.400;8.062;2024-01-06T16:11:43;9.70;93.70
8711;DHT22;4392;47.400;8.062;2024-01-06T16:14:08;9.20;94.40
8711;DHT22;4392;47.400;8.062;2024-01-06T16:16:34;9.10;94.80
8711;DHT22;4392;47.400;8.062;2024-01-06T16:19:00;9.10;94.60
8711;DHT22;4392;47.400;8.062;2024-01-06T16:21:26;9.10;94.40